Boise Air Terminal/Gowen field
KBOI : rendu visible

Aérodrome :











RETROUVEZ-NOUS SUR...

 
LOGIN :

S'inscrire | Disclaimer

   EN    FR    IT 

 









Légende :    VFR   VFR Marginal   IFR   IFR Intensif   IFR Très Intensif
Visi : 
Plafond : 
>= 8 km
>= 3000ft
5 à 8 km
1000 à 3000 ft
1500m à 5 km
500 à 1000 ft
800 à 1500m
200 à 500 ft
< 800m
< 200 ft
Symboles :   Orages  Brouillard  Fortes neiges  Fortes précipitations  Vent > 20 kt






- Altitude de l'aérodrome : 2871 ft
- Code IATA : BOI


KBOI - Boise Air Terminal/Gowen field

DERNIER METAR :
  • 240553Z 15005KT 10SM CLR 04/02 A3011 RMK AO2 SLP206 T00440017 10094 20044 58010

METARs EXPIRÉS :
  • 240453Z 15007KT 10SM CLR 06/02 A3012 RMK AO2 SLP209 T00560022
  • 240353Z 14007KT 10SM CLR 06/02 A3013 RMK AO2 SLP213 T00560022

TAF KBOI
Valide du 24 à 06h jusqu'au 25 à 06h UTC


240535Z 2406/2506 15007KT P6SM BKN150
FM240900 13007KT 6SM -RA BR OVC040
FM241300 13009KT 5SM -RA BR OVC015
FM241800 13006KT P6SM -SHRA OVC060
FM250000 32006KT P6SM SCT080



MET'MAP, la Météo Aéronautique d'un coup d'oeil ! - Copyright ORBIFLY Décembre 2007 - Disclaimer

ORBIFLY MET'MAP TEAM :

Programmation & Développement : Alexandra Zaïnal
Sur une idée originale de : Baudouin d'Aumeries
Assistance à la programmation : Marc-Olivier Méhu
Soutien technique & logistique : Manuel Goepfert

Contact : metmap@orbifly.com




SOURCES & CREDITS :

   NOAA       Earth
Advisory